PWSweather.com
Personal Weather Stations
Station Observations
WD4JKH
Forsyth, GA 31029

Forsyth, GA 31029

Lat: 33.033225, Lon: -83.927995

Elevation: 709

Station Type: Davis Vantage VUE

High Low Average
Temperature 71.6°F22.0°C 47.5°F8.6°C 63.8°F17.7°C
Dew Point 67.4°F19.7°C 42.6°F5.9°C 58.9°F14.9°C
Winds 11.7 mph 18.8 kmh 1.6 mph 2.6 kmh 5.0 mph SSW8.0 kmh SSW
Wind Gusts 25.0 mph40.2 kmh 8.0 mph12.9 kmh 17.0 mph27.4 kmh
Humidity 96% 71% 84%
Pressure 29.76 in1007.8 mb 29.45 in997.3 mb -
Precipitation 1.38 in35.1 mm - -
Hour Temp Dew Point Humidity Winds Wind Gusts Pressure Precip Precip Rate Daily Precip Total
12:02 AM 69.8°F21.0°C 61.3°F16.3°C 74% 1.8 mph S2.9 kmh S 11.0 mph17.7 kmh 29.76 in1007.8 mb 0.00 in0.0 mm 0.00 in0.0 mm 0.00 in0.0 mm
12:08 AM 69.7°F20.9°C 61.0°F16.1°C 74% 3.9 mph SE6.3 kmh SE 10.0 mph16.1 kmh 29.75 in1007.5 mb 0.00 in0.0 mm 0.00 in0.0 mm 0.00 in0.0 mm
12:12 AM 69.6°F20.9°C 61.5°F16.4°C 75% 2.8 mph SE4.5 kmh SE 10.0 mph16.1 kmh 29.75 in1007.5 mb 0.00 in0.0 mm 0.00 in0.0 mm 0.00 in0.0 mm
12:18 AM 69.6°F20.9°C 61.5°F16.4°C 75% 2.1 mph SSE3.4 kmh SSE 10.0 mph16.1 kmh 29.74 in1007.1 mb 0.00 in0.0 mm 0.00 in0.0 mm 0.00 in0.0 mm
12:22 AM 69.5°F20.8°C 61.7°F16.5°C 76% 3.8 mph SE6.1 kmh SE 10.0 mph16.1 kmh 29.74 in1007.1 mb 0.00 in0.0 mm 0.00 in0.0 mm 0.00 in0.0 mm
12:27 AM 69.4°F20.8°C 61.6°F16.4°C 76% 5.4 mph SE8.7 kmh SE 11.0 mph17.7 kmh 29.72 in1006.4 mb 0.00 in0.0 mm 0.00 in0.0 mm 0.00 in0.0 mm
12:32 AM 69.4°F20.8°C 61.9°F16.6°C 77% 3.9 mph SE6.3 kmh SE 12.0 mph19.3 kmh 29.72 in1006.4 mb 0.00 in0.0 mm 0.00 in0.0 mm 0.00 in0.0 mm
12:37 AM 69.3°F20.7°C 61.8°F16.6°C 77% 3.3 mph SE5.3 kmh SE 12.0 mph19.3 kmh 29.71 in1006.1 mb 0.00 in0.0 mm 0.00 in0.0 mm 0.00 in0.0 mm
12:43 AM 69.2°F20.7°C 62.0°F16.7°C 78% 3.4 mph SE5.5 kmh SE 12.0 mph19.3 kmh 29.70 in1005.8 mb 0.00 in0.0 mm 0.00 in0.0 mm 0.00 in0.0 mm
12:47 AM 69.2°F20.7°C 62.5°F16.9°C 79% 5.4 mph SE8.7 kmh SE 12.0 mph19.3 kmh 29.70 in1005.8 mb 0.00 in0.0 mm 0.00 in0.0 mm 0.00 in0.0 mm
12:53 AM 69.2°F20.7°C 62.4°F16.9°C 79% 2.8 mph SSE4.5 kmh SSE 12.0 mph19.3 kmh 29.70 in1005.8 mb 0.00 in0.0 mm 0.00 in0.0 mm 0.00 in0.0 mm
12:58 AM 69.2°F20.7°C 62.8°F17.1°C 80% 1.7 mph SE2.7 kmh SE 12.0 mph19.3 kmh 29.70 in1005.8 mb 0.00 in0.0 mm 0.00 in0.0 mm 0.00 in0.0 mm
01:03 AM 69.2°F20.7°C 63.2°F17.3°C 81% 3.3 mph SE5.3 kmh SE 10.0 mph16.1 kmh 29.68 in1005.1 mb 0.00 in0.0 mm 0.00 in0.0 mm 0.00 in0.0 mm
01:08 AM 69.3°F20.7°C 63.2°F17.3°C 81% 3.4 mph SE5.5 kmh SE 12.0 mph19.3 kmh 29.68 in1005.1 mb 0.00 in0.0 mm 0.00 in0.0 mm 0.00 in0.0 mm
01:13 AM 69.2°F20.7°C 63.5°F17.5°C 82% 3.8 mph SE6.1 kmh SE 13.0 mph20.9 kmh 29.67 in1004.7 mb 0.00 in0.0 mm 0.00 in0.0 mm 0.00 in0.0 mm
01:18 AM 69.3°F20.7°C 63.6°F17.6°C 82% 3.2 mph SSE5.1 kmh SSE 13.0 mph20.9 kmh 29.67 in1004.7 mb 0.00 in0.0 mm 0.00 in0.0 mm 0.00 in0.0 mm
01:23 AM 69.3°F20.7°C 63.6°F17.6°C 82% 2.6 mph SE4.2 kmh SE 13.0 mph20.9 kmh 29.67 in1004.7 mb 0.00 in0.0 mm 0.00 in0.0 mm 0.00 in0.0 mm
01:28 AM 69.2°F20.7°C 63.8°F17.7°C 83% 2.7 mph S4.3 kmh S 12.0 mph19.3 kmh 29.67 in1004.7 mb 0.00 in0.0 mm 0.00 in0.0 mm 0.00 in0.0 mm
01:33 AM 69.2°F20.7°C 63.8°F17.7°C 83% 3.8 mph SE6.1 kmh SE 12.0 mph19.3 kmh 29.66 in1004.4 mb 0.00 in0.0 mm 0.00 in0.0 mm 0.00 in0.0 mm
01:37 AM 69.2°F20.7°C 63.8°F17.7°C 83% 2.8 mph SE4.5 kmh SE 10.0 mph16.1 kmh 29.65 in1004.1 mb 0.00 in0.0 mm 0.00 in0.0 mm 0.00 in0.0 mm
01:43 AM 69.1°F20.6°C 63.7°F17.6°C 83% 4.6 mph SSE7.4 kmh SSE 10.0 mph16.1 kmh 29.65 in1004.1 mb 0.00 in0.0 mm 0.00 in0.0 mm 0.00 in0.0 mm
01:48 AM 69.1°F20.6°C 63.8°F17.7°C 83% 4.7 mph SE7.6 kmh SE 11.0 mph17.7 kmh 29.64 in1003.7 mb 0.00 in0.0 mm 0.00 in0.0 mm 0.00 in0.0 mm
01:53 AM 69.0°F20.6°C 63.7°F17.6°C 83% 3.5 mph SE5.6 kmh SE 11.0 mph17.7 kmh 29.63 in1003.4 mb 0.00 in0.0 mm 0.00 in0.0 mm 0.00 in0.0 mm
01:58 AM 69.0°F20.6°C 64.0°F17.8°C 84% 4.4 mph SE7.1 kmh SE 16.0 mph25.7 kmh 29.63 in1003.4 mb 0.00 in0.0 mm 0.00 in0.0 mm 0.00 in0.0 mm
02:03 AM 69.0°F20.6°C 64.0°F17.8°C 84% 7.4 mph SE11.9 kmh SE 16.0 mph25.7 kmh 29.62 in1003.0 mb 0.00 in0.0 mm 0.00 in0.0 mm 0.00 in0.0 mm
02:08 AM 69.1°F20.6°C 64.4°F18.0°C 85% 4.0 mph SE6.4 kmh SE 16.0 mph25.7 kmh 29.62 in1003.0 mb 0.00 in0.0 mm 0.00 in0.0 mm 0.00 in0.0 mm
02:13 AM 69.0°F20.6°C 64.3°F17.9°C 85% 3.0 mph SE4.8 kmh SE 16.0 mph25.7 kmh 29.62 in1003.0 mb 0.00 in0.0 mm 0.00 in0.0 mm 0.00 in0.0 mm
02:18 AM 68.9°F20.5°C 64.2°F17.9°C 85% 4.8 mph SE7.7 kmh SE 13.0 mph20.9 kmh 29.61 in1002.7 mb 0.00 in0.0 mm 0.00 in0.0 mm 0.00 in0.0 mm
02:23 AM 68.8°F20.4°C 64.1°F17.8°C 85% 4.8 mph SE7.7 kmh SE 13.0 mph20.9 kmh 29.60 in1002.4 mb 0.00 in0.0 mm 0.00 in0.0 mm 0.00 in0.0 mm
02:28 AM 68.8°F20.4°C 64.1°F17.8°C 85% 4.3 mph SE6.9 kmh SE 13.0 mph20.9 kmh 29.61 in1002.7 mb 0.00 in0.0 mm 0.00 in0.0 mm 0.00 in0.0 mm
02:33 AM 68.6°F20.3°C 63.9°F17.7°C 85% 4.4 mph SE7.1 kmh SE 13.0 mph20.9 kmh 29.60 in1002.4 mb 0.00 in0.0 mm 0.00 in0.0 mm 0.00 in0.0 mm
02:38 AM 68.5°F20.3°C 64.1°F17.8°C 86% 6.4 mph SE10.3 kmh SE 14.0 mph22.5 kmh 29.60 in1002.4 mb 0.00 in0.0 mm 0.00 in0.0 mm 0.00 in0.0 mm
02:43 AM 68.4°F20.2°C 64.0°F17.8°C 86% 5.5 mph SSE8.9 kmh SSE 14.0 mph22.5 kmh 29.60 in1002.4 mb 0.00 in0.0 mm 0.00 in0.0 mm 0.00 in0.0 mm
02:48 AM 68.3°F20.2°C 63.9°F17.7°C 86% 5.2 mph SE8.4 kmh SE 14.0 mph22.5 kmh 29.59 in1002.0 mb 0.00 in0.0 mm 0.00 in0.0 mm 0.00 in0.0 mm
02:53 AM 68.2°F20.1°C 64.2°F17.9°C 87% 5.6 mph SE9.0 kmh SE 14.0 mph22.5 kmh 29.59 in1002.0 mb 0.00 in0.0 mm 0.00 in0.0 mm 0.00 in0.0 mm
02:58 AM 68.1°F20.1°C 64.1°F17.8°C 87% 6.2 mph SE10.0 kmh SE 13.0 mph20.9 kmh 29.59 in1002.0 mb 0.00 in0.0 mm 0.00 in0.0 mm 0.00 in0.0 mm
03:03 AM 68.1°F20.1°C 64.4°F18.0°C 88% 5.2 mph SE8.4 kmh SE 13.0 mph20.9 kmh 29.59 in1002.0 mb 0.00 in0.0 mm 0.00 in0.0 mm 0.00 in0.0 mm
03:08 AM 68.1°F20.1°C 64.4°F18.0°C 88% 3.0 mph SE4.8 kmh SE 13.0 mph20.9 kmh 29.60 in1002.4 mb 0.00 in0.0 mm 0.00 in0.0 mm 0.00 in0.0 mm
03:13 AM 68.0°F20.0°C 64.3°F17.9°C 88% 3.4 mph SE5.5 kmh SE 13.0 mph20.9 kmh 29.60 in1002.4 mb 0.00 in0.0 mm 0.00 in0.0 mm 0.00 in0.0 mm
03:18 AM 68.0°F20.0°C 64.3°F17.9°C 88% 3.6 mph SE5.8 kmh SE 13.0 mph20.9 kmh 29.59 in1002.0 mb 0.00 in0.0 mm 0.00 in0.0 mm 0.00 in0.0 mm
03:23 AM 68.1°F20.1°C 64.4°F18.0°C 88% 6.2 mph SE10.0 kmh SE 15.0 mph24.1 kmh 29.59 in1002.0 mb 0.00 in0.0 mm 0.00 in0.0 mm 0.00 in0.0 mm
03:28 AM 68.1°F20.1°C 64.4°F18.0°C 88% 5.5 mph SE8.9 kmh SE 15.0 mph24.1 kmh 29.59 in1002.0 mb 0.00 in0.0 mm 0.00 in0.0 mm 0.00 in0.0 mm
03:33 AM 68.1°F20.1°C 64.4°F18.0°C 88% 4.4 mph SE7.1 kmh SE 15.0 mph24.1 kmh 29.59 in1002.0 mb 0.00 in0.0 mm 0.00 in0.0 mm 0.00 in0.0 mm
03:38 AM 68.1°F20.1°C 64.4°F18.0°C 88% 4.8 mph SE7.7 kmh SE 15.0 mph24.1 kmh 29.58 in1001.7 mb 0.00 in0.0 mm 0.00 in0.0 mm 0.00 in0.0 mm
03:43 AM 68.1°F20.1°C 64.4°F18.0°C 88% 3.8 mph SSE6.1 kmh SSE 12.0 mph19.3 kmh 29.58 in1001.7 mb 0.00 in0.0 mm 0.00 in0.0 mm 0.00 in0.0 mm
03:48 AM 68.1°F20.1°C 64.7°F18.2°C 89% 4.2 mph SSE6.8 kmh SSE 11.0 mph17.7 kmh 29.58 in1001.7 mb 0.00 in0.0 mm 0.00 in0.0 mm 0.00 in0.0 mm
03:53 AM 68.0°F20.0°C 64.6°F18.1°C 89% 3.2 mph SE5.1 kmh SE 11.0 mph17.7 kmh 29.58 in1001.7 mb 0.00 in0.0 mm 0.00 in0.0 mm 0.00 in0.0 mm
03:58 AM 68.0°F20.0°C 64.6°F18.1°C 89% 3.8 mph SE6.1 kmh SE 11.0 mph17.7 kmh 29.58 in1001.7 mb 0.00 in0.0 mm 0.00 in0.0 mm 0.00 in0.0 mm
04:03 AM 68.0°F20.0°C 64.6°F18.1°C 89% 4.7 mph SE7.6 kmh SE 12.0 mph19.3 kmh 29.57 in1001.4 mb 0.00 in0.0 mm 0.00 in0.0 mm 0.00 in0.0 mm
04:08 AM 68.0°F20.0°C 64.6°F18.1°C 89% 4.6 mph SE7.4 kmh SE 12.0 mph19.3 kmh 29.57 in1001.4 mb 0.00 in0.0 mm 0.00 in0.0 mm 0.00 in0.0 mm
04:13 AM 68.0°F20.0°C 64.6°F18.1°C 89% 4.1 mph SE6.6 kmh SE 12.0 mph19.3 kmh 29.57 in1001.4 mb 0.00 in0.0 mm 0.00 in0.0 mm 0.00 in0.0 mm
04:18 AM 68.1°F20.1°C 64.7°F18.2°C 89% 3.3 mph SSE5.3 kmh SSE 15.0 mph24.1 kmh 29.56 in1001.0 mb 0.00 in0.0 mm 0.00 in0.0 mm 0.00 in0.0 mm
04:23 AM 68.1°F20.1°C 64.7°F18.2°C 89% 6.7 mph SE10.8 kmh SE 16.0 mph25.7 kmh 29.56 in1001.0 mb 0.00 in0.0 mm 0.00 in0.0 mm 0.00 in0.0 mm
04:28 AM 68.2°F20.1°C 64.8°F18.2°C 89% 4.8 mph SE7.7 kmh SE 16.0 mph25.7 kmh 29.56 in1001.0 mb 0.00 in0.0 mm 0.00 in0.0 mm 0.00 in0.0 mm
04:33 AM 68.2°F20.1°C 64.8°F18.2°C 89% 5.8 mph SE9.3 kmh SE 16.0 mph25.7 kmh 29.56 in1001.0 mb 0.00 in0.0 mm 0.00 in0.0 mm 0.00 in0.0 mm
04:38 AM 68.2°F20.1°C 64.8°F18.2°C 89% 2.6 mph SE4.2 kmh SE 16.0 mph25.7 kmh 29.56 in1001.0 mb 0.00 in0.0 mm 0.00 in0.0 mm 0.00 in0.0 mm
04:43 AM 68.2°F20.1°C 64.8°F18.2°C 89% 3.7 mph SSE6.0 kmh SSE 13.0 mph20.9 kmh 29.56 in1001.0 mb 0.00 in0.0 mm 0.00 in0.0 mm 0.00 in0.0 mm
04:48 AM 68.3°F20.2°C 65.2°F18.4°C 90% 4.9 mph SE7.9 kmh SE 14.0 mph22.5 kmh 29.56 in1001.0 mb 0.00 in0.0 mm 0.00 in0.0 mm 0.00 in0.0 mm
04:52 AM 68.5°F20.3°C 65.1°F18.4°C 89% 4.6 mph SE7.4 kmh SE 14.0 mph22.5 kmh 29.56 in1001.0 mb 0.00 in0.0 mm 0.00 in0.0 mm 0.00 in0.0 mm
04:57 AM 68.6°F20.3°C 65.2°F18.4°C 89% 6.8 mph SE10.9 kmh SE 14.0 mph22.5 kmh 29.56 in1001.0 mb 0.00 in0.0 mm 0.00 in0.0 mm 0.00 in0.0 mm
05:02 AM 68.7°F20.4°C 65.3°F18.5°C 89% 6.3 mph SE10.1 kmh SE 19.0 mph30.6 kmh 29.55 in1000.7 mb 0.00 in0.0 mm 0.00 in0.0 mm 0.00 in0.0 mm
05:07 AM 68.8°F20.4°C 65.4°F18.6°C 89% 2.8 mph SSE4.5 kmh SSE 19.0 mph30.6 kmh 29.55 in1000.7 mb 0.00 in0.0 mm 0.00 in0.0 mm 0.00 in0.0 mm
05:12 AM 68.8°F20.4°C 65.4°F18.6°C 89% 4.9 mph SSE7.9 kmh SSE 19.0 mph30.6 kmh 29.55 in1000.7 mb 0.00 in0.0 mm 0.00 in0.0 mm 0.00 in0.0 mm
05:17 AM 69.0°F20.6°C 65.6°F18.7°C 89% 3.8 mph SE6.1 kmh SE 15.0 mph24.1 kmh 29.54 in1000.3 mb 0.00 in0.0 mm 0.00 in0.0 mm 0.00 in0.0 mm
05:22 AM 69.1°F20.6°C 65.7°F18.7°C 89% 4.0 mph SSE6.4 kmh SSE 15.0 mph24.1 kmh 29.54 in1000.3 mb 0.00 in0.0 mm 0.00 in0.0 mm 0.00 in0.0 mm
05:27 AM 69.3°F20.7°C 65.6°F18.7°C 88% 4.7 mph SE7.6 kmh SE 16.0 mph25.7 kmh 29.54 in1000.3 mb 0.00 in0.0 mm 0.00 in0.0 mm 0.00 in0.0 mm
05:32 AM 69.5°F20.8°C 65.8°F18.8°C 88% 4.1 mph SSE6.6 kmh SSE 16.0 mph25.7 kmh 29.54 in1000.3 mb 0.00 in0.0 mm 0.00 in0.0 mm 0.00 in0.0 mm
05:37 AM 69.7°F20.9°C 66.0°F18.9°C 88% 5.0 mph S8.0 kmh S 16.0 mph25.7 kmh 29.55 in1000.7 mb 0.00 in0.0 mm 0.00 in0.0 mm 0.00 in0.0 mm
05:42 AM 70.0°F21.1°C 66.0°F18.9°C 87% 4.0 mph S6.4 kmh S 16.0 mph25.7 kmh 29.55 in1000.7 mb 0.00 in0.0 mm 0.00 in0.0 mm 0.00 in0.0 mm
05:47 AM 70.3°F21.3°C 66.3°F19.1°C 87% 4.6 mph S7.4 kmh S 16.0 mph25.7 kmh 29.55 in1000.7 mb 0.00 in0.0 mm 0.00 in0.0 mm 0.00 in0.0 mm
05:52 AM 70.5°F21.4°C 66.1°F18.9°C 86% 5.2 mph S8.4 kmh S 16.0 mph25.7 kmh 29.55 in1000.7 mb 0.00 in0.0 mm 0.00 in0.0 mm 0.00 in0.0 mm
05:57 AM 70.8°F21.6°C 66.4°F19.1°C 86% 3.7 mph SSE6.0 kmh SSE 16.0 mph25.7 kmh 29.55 in1000.7 mb 0.00 in0.0 mm 0.00 in0.0 mm 0.00 in0.0 mm
06:02 AM 70.9°F21.6°C 66.2°F19.0°C 85% 2.6 mph SSE4.2 kmh SSE 16.0 mph25.7 kmh 29.55 in1000.7 mb 0.00 in0.0 mm 0.00 in0.0 mm 0.00 in0.0 mm
06:07 AM 70.9°F21.6°C 66.5°F19.2°C 86% 6.8 mph S10.9 kmh S 16.0 mph25.7 kmh 29.55 in1000.7 mb 0.00 in0.0 mm 0.00 in0.0 mm 0.00 in0.0 mm
06:12 AM 70.6°F21.4°C 66.5°F19.2°C 87% 3.8 mph S6.1 kmh S 18.0 mph29.0 kmh 29.54 in1000.3 mb 0.00 in0.0 mm 0.00 in0.0 mm 0.00 in0.0 mm
06:17 AM 70.4°F21.3°C 66.4°F19.1°C 87% 5.9 mph SSE9.5 kmh SSE 18.0 mph29.0 kmh 29.53 in1000.0 mb 0.00 in0.0 mm 0.00 in0.0 mm 0.00 in0.0 mm
06:22 AM 70.4°F21.3°C 66.4°F19.1°C 87% 2.1 mph S3.4 kmh S 18.0 mph29.0 kmh 29.54 in1000.3 mb 0.00 in0.0 mm 0.00 in0.0 mm 0.00 in0.0 mm
06:27 AM 70.5°F21.4°C 66.5°F19.2°C 87% 5.3 mph SSE8.5 kmh SSE 18.0 mph29.0 kmh 29.54 in1000.3 mb 0.00 in0.0 mm 0.00 in0.0 mm 0.00 in0.0 mm
06:32 AM 70.7°F21.5°C 66.3°F19.1°C 86% 7.5 mph S12.1 kmh S 18.0 mph29.0 kmh 29.54 in1000.3 mb 0.00 in0.0 mm 0.00 in0.0 mm 0.00 in0.0 mm
06:37 AM 70.9°F21.6°C 66.5°F19.2°C 86% 3.2 mph SSE5.1 kmh SSE 18.0 mph29.0 kmh 29.52 in999.7 mb 0.00 in0.0 mm 0.00 in0.0 mm 0.00 in0.0 mm
06:42 AM 71.0°F21.7°C 66.6°F19.2°C 86% 4.7 mph SSE7.6 kmh SSE 18.0 mph29.0 kmh 29.52 in999.7 mb 0.00 in0.0 mm 0.00 in0.0 mm 0.00 in0.0 mm
06:47 AM 71.1°F21.7°C 66.7°F19.3°C 86% 2.5 mph S4.0 kmh S 15.0 mph24.1 kmh 29.52 in999.7 mb 0.00 in0.0 mm 0.00 in0.0 mm 0.00 in0.0 mm
06:52 AM 71.1°F21.7°C 66.7°F19.3°C 86% 3.9 mph S6.3 kmh S 15.0 mph24.1 kmh 29.52 in999.7 mb 0.00 in0.0 mm 0.00 in0.0 mm 0.00 in0.0 mm
06:57 AM 71.3°F21.8°C 66.6°F19.2°C 85% 5.3 mph S8.5 kmh S 21.0 mph33.8 kmh 29.52 in999.7 mb 0.00 in0.0 mm 0.00 in0.0 mm 0.00 in0.0 mm
07:02 AM 71.3°F21.8°C 66.6°F19.2°C 85% 4.7 mph SSE7.6 kmh SSE 21.0 mph33.8 kmh 29.52 in999.7 mb 0.00 in0.0 mm 0.00 in0.0 mm 0.00 in0.0 mm
07:07 AM 71.4°F21.9°C 66.7°F19.3°C 85% 4.7 mph S7.6 kmh S 21.0 mph33.8 kmh 29.52 in999.7 mb 0.00 in0.0 mm 0.00 in0.0 mm 0.00 in0.0 mm
07:12 AM 71.4°F21.9°C 66.7°F19.3°C 85% 7.4 mph SSE11.9 kmh SSE 21.0 mph33.8 kmh 29.52 in999.7 mb 0.00 in0.0 mm 0.00 in0.0 mm 0.00 in0.0 mm
07:17 AM 71.5°F21.9°C 66.8°F19.3°C 85% 5.1 mph SSE8.2 kmh SSE 18.0 mph29.0 kmh 29.52 in999.7 mb 0.00 in0.0 mm 0.00 in0.0 mm 0.00 in0.0 mm
07:22 AM 71.6°F22.0°C 66.9°F19.4°C 85% 6.7 mph S10.8 kmh S 18.0 mph29.0 kmh 29.52 in999.7 mb 0.00 in0.0 mm 0.00 in0.0 mm 0.00 in0.0 mm
07:27 AM 71.6°F22.0°C 66.9°F19.4°C 85% 2.8 mph SSE4.5 kmh SSE 18.0 mph29.0 kmh 29.52 in999.7 mb 0.00 in0.0 mm 0.00 in0.0 mm 0.00 in0.0 mm
07:32 AM 71.5°F21.9°C 66.8°F19.3°C 85% 5.2 mph S8.4 kmh S 17.0 mph27.4 kmh 29.52 in999.7 mb 0.00 in0.0 mm 0.00 in0.0 mm 0.00 in0.0 mm
07:37 AM 71.3°F21.8°C 66.9°F19.4°C 86% 5.0 mph S8.0 kmh S 17.0 mph27.4 kmh 29.53 in1000.0 mb 0.00 in0.0 mm 0.00 in0.0 mm 0.00 in0.0 mm
07:42 AM 71.2°F21.8°C 66.8°F19.3°C 86% 4.5 mph S7.2 kmh S 17.0 mph27.4 kmh 29.53 in1000.0 mb 0.00 in0.0 mm 0.00 in0.0 mm 0.00 in0.0 mm
07:47 AM 71.0°F21.7°C 66.9°F19.4°C 87% 2.8 mph S4.5 kmh S 15.0 mph24.1 kmh 29.52 in999.7 mb 0.00 in0.0 mm 0.00 in0.0 mm 0.00 in0.0 mm
07:52 AM 70.7°F21.5°C 67.0°F19.4°C 88% 3.0 mph S4.8 kmh S 13.0 mph20.9 kmh 29.53 in1000.0 mb 0.00 in0.0 mm 0.00 in0.0 mm 0.00 in0.0 mm
07:57 AM 70.4°F21.3°C 67.0°F19.4°C 89% 3.8 mph S6.1 kmh S 13.0 mph20.9 kmh 29.53 in1000.0 mb 0.01 in0.3 mm 0.12 in3.0 mm 0.01 in0.3 mm
08:02 AM 70.0°F21.1°C 67.2°F19.6°C 91% 4.0 mph SSW6.4 kmh SSW 11.0 mph17.7 kmh 29.53 in1000.0 mb 0.02 in0.5 mm 0.01 in0.3 mm 0.02 in0.5 mm
08:07 AM 69.7°F20.9°C 67.2°F19.6°C 92% 3.4 mph S5.5 kmh S 11.0 mph17.7 kmh 29.53 in1000.0 mb 0.02 in0.5 mm 0.00 in0.0 mm 0.02 in0.5 mm
08:12 AM 69.6°F20.9°C 67.1°F19.5°C 92% 3.1 mph S5.0 kmh S 11.0 mph17.7 kmh 29.53 in1000.0 mb 0.02 in0.5 mm 0.00 in0.0 mm 0.02 in0.5 mm
08:17 AM 69.4°F20.8°C 67.3°F19.6°C 93% 4.3 mph S6.9 kmh S 13.0 mph20.9 kmh 29.52 in999.7 mb 0.02 in0.5 mm 0.00 in0.0 mm 0.02 in0.5 mm
08:22 AM 69.3°F20.7°C 67.2°F19.6°C 93% 1.9 mph SE3.1 kmh SE 13.0 mph20.9 kmh 29.52 in999.7 mb 0.03 in0.8 mm 0.12 in3.0 mm 0.03 in0.8 mm
08:27 AM 69.2°F20.7°C 67.4°F19.7°C 94% 3.8 mph S6.1 kmh S 13.0 mph20.9 kmh 29.51 in999.3 mb 0.05 in1.3 mm 0.24 in6.1 mm 0.05 in1.3 mm
08:32 AM 69.1°F20.6°C 67.3°F19.6°C 94% 3.3 mph SE5.3 kmh SE 13.0 mph20.9 kmh 29.51 in999.3 mb 0.09 in2.3 mm 0.48 in12.2 mm 0.09 in2.3 mm
08:37 AM 68.9°F20.5°C 67.1°F19.5°C 94% 3.8 mph S6.1 kmh S 15.0 mph24.1 kmh 29.51 in999.3 mb 0.10 in2.5 mm 0.12 in3.0 mm 0.10 in2.5 mm
08:42 AM 68.8°F20.4°C 67.0°F19.4°C 94% 3.6 mph SSE5.8 kmh SSE 15.0 mph24.1 kmh 29.50 in999.0 mb 0.10 in2.5 mm 0.00 in0.0 mm 0.10 in2.5 mm
08:47 AM 68.7°F20.4°C 66.9°F19.4°C 94% 4.0 mph S6.4 kmh S 22.0 mph35.4 kmh 29.49 in998.6 mb 0.10 in2.5 mm 0.00 in0.0 mm 0.10 in2.5 mm
08:52 AM 68.5°F20.3°C 66.4°F19.1°C 93% 5.1 mph S8.2 kmh S 22.0 mph35.4 kmh 29.50 in999.0 mb 0.14 in3.6 mm 0.48 in12.2 mm 0.14 in3.6 mm
08:57 AM 68.2°F20.1°C 66.1°F18.9°C 93% 4.2 mph SSW6.8 kmh SSW 22.0 mph35.4 kmh 29.48 in998.3 mb 0.18 in4.6 mm 0.48 in12.2 mm 0.19 in4.8 mm
09:02 AM 68.1°F20.1°C 66.3°F19.1°C 94% 5.8 mph SW9.3 kmh SW 22.0 mph35.4 kmh 29.49 in998.6 mb 0.23 in5.8 mm 0.05 in1.3 mm 0.26 in6.6 mm
09:07 AM 68.0°F20.0°C 66.5°F19.2°C 95% 3.6 mph SSW5.8 kmh SSW 18.0 mph29.0 kmh 29.49 in998.6 mb 0.44 in11.2 mm 2.52 in64.0 mm 0.47 in11.9 mm
09:12 AM 67.9°F19.9°C 66.4°F19.1°C 95% 8.0 mph SW12.9 kmh SW 18.0 mph29.0 kmh 29.50 in999.0 mb 0.73 in18.5 mm 3.48 in88.4 mm 0.75 in19.1 mm
09:17 AM 67.8°F19.9°C 66.6°F19.2°C 96% 5.0 mph SSW8.0 kmh SSW 18.0 mph29.0 kmh 29.49 in998.6 mb 0.78 in19.8 mm 0.60 in15.2 mm 0.80 in20.3 mm
09:22 AM 67.7°F19.8°C 66.5°F19.2°C 96% 3.6 mph SSW5.8 kmh SSW 18.0 mph29.0 kmh 29.49 in998.6 mb 0.77 in19.6 mm 0.00 in0.0 mm 0.80 in20.3 mm
09:27 AM 67.7°F19.8°C 66.5°F19.2°C 96% 5.9 mph SW9.5 kmh SW 18.0 mph29.0 kmh 29.49 in998.6 mb 0.75 in19.1 mm 0.00 in0.0 mm 0.80 in20.3 mm
09:32 AM 67.7°F19.8°C 66.2°F19.0°C 95% 8.0 mph SW12.9 kmh SW 23.0 mph37.0 kmh 29.49 in998.6 mb 0.71 in18.0 mm 0.00 in0.0 mm 0.80 in20.3 mm
09:37 AM 67.7°F19.8°C 66.2°F19.0°C 95% 4.8 mph SW7.7 kmh SW 23.0 mph37.0 kmh 29.49 in998.6 mb 0.70 in17.8 mm 0.00 in0.0 mm 0.80 in20.3 mm
09:42 AM 67.7°F19.8°C 66.2°F19.0°C 95% 7.0 mph SW11.3 kmh SW 23.0 mph37.0 kmh 29.49 in998.6 mb 0.70 in17.8 mm 0.00 in0.0 mm 0.80 in20.3 mm
09:47 AM 67.7°F19.8°C 66.2°F19.0°C 95% 5.4 mph SW8.7 kmh SW 23.0 mph37.0 kmh 29.49 in998.6 mb 0.70 in17.8 mm 0.00 in0.0 mm 0.80 in20.3 mm
09:51 AM 67.7°F19.8°C 66.2°F19.0°C 95% 2.5 mph S4.0 kmh S 18.0 mph29.0 kmh 29.49 in998.6 mb 0.68 in17.3 mm 0.00 in0.0 mm 0.80 in20.3 mm
09:56 AM 67.6°F19.8°C 66.1°F18.9°C 95% 3.6 mph S5.8 kmh S 18.0 mph29.0 kmh 29.49 in998.6 mb 0.63 in16.0 mm 0.00 in0.0 mm 0.82 in20.8 mm
10:01 AM 67.5°F19.7°C 66.0°F18.9°C 95% 8.1 mph SSW13.0 kmh SSW 19.0 mph30.6 kmh 29.48 in998.3 mb 0.63 in16.0 mm 0.00 in0.0 mm 0.86 in21.8 mm
10:06 AM 67.5°F19.7°C 66.0°F18.9°C 95% 4.3 mph SSW6.9 kmh SSW 19.0 mph30.6 kmh 29.48 in998.3 mb 0.42 in10.7 mm 0.00 in0.0 mm 0.86 in21.8 mm
10:11 AM 67.5°F19.7°C 66.0°F18.9°C 95% 3.8 mph S6.1 kmh S 19.0 mph30.6 kmh 29.48 in998.3 mb 0.19 in4.8 mm 0.00 in0.0 mm 0.86 in21.8 mm
10:16 AM 67.7°F19.8°C 66.2°F19.0°C 95% 2.5 mph S4.0 kmh S 19.0 mph30.6 kmh 29.47 in998.0 mb 0.06 in1.5 mm 0.00 in0.0 mm 0.86 in21.8 mm
10:21 AM 67.8°F19.9°C 66.3°F19.1°C 95% 3.4 mph SSW5.5 kmh SSW 14.0 mph22.5 kmh 29.47 in998.0 mb 0.06 in1.5 mm 0.00 in0.0 mm 0.86 in21.8 mm
10:26 AM 68.0°F20.0°C 66.5°F19.2°C 95% 3.4 mph SSW5.5 kmh SSW 20.0 mph32.2 kmh 29.47 in998.0 mb 0.06 in1.5 mm 0.00 in0.0 mm 0.86 in21.8 mm
10:31 AM 68.0°F20.0°C 66.5°F19.2°C 95% 3.5 mph SSW5.6 kmh SSW 20.0 mph32.2 kmh 29.47 in998.0 mb 0.06 in1.5 mm 0.00 in0.0 mm 0.86 in21.8 mm
10:36 AM 68.1°F20.1°C 66.6°F19.2°C 95% 1.6 mph SW2.6 kmh SW 20.0 mph32.2 kmh 29.47 in998.0 mb 0.06 in1.5 mm 0.00 in0.0 mm 0.86 in21.8 mm
10:41 AM 68.1°F20.1°C 66.6°F19.2°C 95% 2.4 mph S3.9 kmh S 18.0 mph29.0 kmh 29.46 in997.6 mb 0.06 in1.5 mm 0.00 in0.0 mm 0.86 in21.8 mm
10:46 AM 68.0°F20.0°C 66.5°F19.2°C 95% 4.2 mph SSW6.8 kmh SSW 14.0 mph22.5 kmh 29.46 in997.6 mb 0.09 in2.3 mm 0.36 in9.1 mm 0.89 in22.6 mm
10:51 AM 67.8°F19.9°C 66.3°F19.1°C 95% 2.3 mph WSW3.7 kmh WSW 12.0 mph19.3 kmh 29.47 in998.0 mb 0.18 in4.6 mm 1.08 in27.4 mm 0.99 in25.1 mm
10:56 AM 66.8°F19.3°C 64.7°F18.2°C 93% 5.3 mph WSW8.5 kmh WSW 14.0 mph22.5 kmh 29.47 in998.0 mb 0.35 in8.9 mm 2.04 in51.8 mm 1.17 in29.7 mm
11:01 AM 66.0°F18.9°C 64.2°F17.9°C 94% 4.6 mph WSW7.4 kmh WSW 14.0 mph22.5 kmh 29.47 in998.0 mb 0.36 in9.1 mm 0.01 in0.3 mm 1.22 in31.0 mm
11:06 AM 65.6°F18.7°C 64.1°F17.8°C 95% 2.4 mph SW3.9 kmh SW 14.0 mph22.5 kmh 29.47 in998.0 mb 0.42 in10.7 mm 0.72 in18.3 mm 1.28 in32.5 mm
11:11 AM 65.6°F18.7°C 64.4°F18.0°C 96% 2.0 mph SW3.2 kmh SW 14.0 mph22.5 kmh 29.47 in998.0 mb 0.42 in10.7 mm 0.00 in0.0 mm 1.28 in32.5 mm
11:16 AM 65.9°F18.8°C 64.7°F18.2°C 96% 2.5 mph SW4.0 kmh SW 12.0 mph19.3 kmh 29.46 in997.6 mb 0.42 in10.7 mm 0.00 in0.0 mm 1.28 in32.5 mm
11:21 AM 66.3°F19.1°C 65.1°F18.4°C 96% 2.4 mph WSW3.9 kmh WSW 8.0 mph12.9 kmh 29.46 in997.6 mb 0.42 in10.7 mm 0.00 in0.0 mm 1.28 in32.5 mm
11:26 AM 66.7°F19.3°C 65.5°F18.6°C 96% 4.9 mph WSW7.9 kmh WSW 12.0 mph19.3 kmh 29.46 in997.6 mb 0.42 in10.7 mm 0.00 in0.0 mm 1.28 in32.5 mm
11:31 AM 67.1°F19.5°C 65.9°F18.8°C 96% 3.9 mph WSW6.3 kmh WSW 12.0 mph19.3 kmh 29.46 in997.6 mb 0.42 in10.7 mm 0.00 in0.0 mm 1.28 in32.5 mm
11:36 AM 67.3°F19.6°C 65.8°F18.8°C 95% 2.6 mph WSW4.2 kmh WSW 12.0 mph19.3 kmh 29.46 in997.6 mb 0.42 in10.7 mm 0.00 in0.0 mm 1.28 in32.5 mm
11:41 AM 67.4°F19.7°C 65.3°F18.5°C 93% 2.7 mph WSW4.3 kmh WSW 12.0 mph19.3 kmh 29.47 in998.0 mb 0.42 in10.7 mm 0.00 in0.0 mm 1.28 in32.5 mm
11:46 AM 67.1°F19.5°C 64.0°F17.8°C 90% 6.5 mph SW10.5 kmh SW 14.0 mph22.5 kmh 29.46 in997.6 mb 0.39 in9.9 mm 0.00 in0.0 mm 1.28 in32.5 mm
11:51 AM 67.2°F19.6°C 63.8°F17.7°C 89% 4.9 mph SW7.9 kmh SW 14.0 mph22.5 kmh 29.47 in998.0 mb 0.29 in7.4 mm 0.00 in0.0 mm 1.28 in32.5 mm
11:56 AM 67.2°F19.6°C 64.1°F17.8°C 90% 4.4 mph WSW7.1 kmh WSW 14.0 mph22.5 kmh 29.47 in998.0 mb 0.11 in2.8 mm 0.00 in0.0 mm 1.28 in32.5 mm
12:01 PM 67.1°F19.5°C 63.7°F17.6°C 89% 5.2 mph WSW8.4 kmh WSW 14.0 mph22.5 kmh 29.48 in998.3 mb 0.06 in1.5 mm 0.00 in0.0 mm 1.28 in32.5 mm
12:06 PM 67.2°F19.6°C 64.1°F17.8°C 90% 4.3 mph SW6.9 kmh SW 15.0 mph24.1 kmh 29.48 in998.3 mb 0.00 in0.0 mm 0.00 in0.0 mm 1.28 in32.5 mm
12:11 PM 67.3°F19.6°C 63.9°F17.7°C 89% 8.8 mph WSW14.2 kmh WSW 18.0 mph29.0 kmh 29.47 in998.0 mb 0.00 in0.0 mm 0.00 in0.0 mm 1.28 in32.5 mm
12:16 PM 67.5°F19.7°C 63.8°F17.7°C 88% 5.4 mph WSW8.7 kmh WSW 18.0 mph29.0 kmh 29.47 in998.0 mb 0.00 in0.0 mm 0.00 in0.0 mm 1.28 in32.5 mm
12:21 PM 67.9°F19.9°C 64.2°F17.9°C 88% 4.9 mph SW7.9 kmh SW 18.0 mph29.0 kmh 29.47 in998.0 mb 0.00 in0.0 mm 0.00 in0.0 mm 1.28 in32.5 mm
12:26 PM 68.1°F20.1°C 64.4°F18.0°C 88% 3.5 mph SW5.6 kmh SW 18.0 mph29.0 kmh 29.47 in998.0 mb 0.00 in0.0 mm 0.00 in0.0 mm 1.28 in32.5 mm
12:31 PM 68.4°F20.2°C 64.4°F18.0°C 87% 3.5 mph SW5.6 kmh SW 16.0 mph25.7 kmh 29.47 in998.0 mb 0.00 in0.0 mm 0.00 in0.0 mm 1.28 in32.5 mm
12:36 PM 68.4°F20.2°C 63.4°F17.4°C 84% 7.2 mph SW11.6 kmh SW 17.0 mph27.4 kmh 29.47 in998.0 mb 0.00 in0.0 mm 0.00 in0.0 mm 1.28 in32.5 mm
12:41 PM 68.8°F20.4°C 64.1°F17.8°C 85% 5.9 mph SW9.5 kmh SW 17.0 mph27.4 kmh 29.47 in998.0 mb 0.00 in0.0 mm 0.00 in0.0 mm 1.28 in32.5 mm
12:46 PM 69.0°F20.6°C 62.3°F16.8°C 79% 6.7 mph SW10.8 kmh SW 17.0 mph27.4 kmh 29.47 in998.0 mb 0.00 in0.0 mm 0.00 in0.0 mm 1.28 in32.5 mm
12:51 PM 69.5°F20.8°C 62.1°F16.7°C 77% 9.6 mph WSW15.4 kmh WSW 20.0 mph32.2 kmh 29.47 in998.0 mb 0.00 in0.0 mm 0.00 in0.0 mm 1.28 in32.5 mm
12:56 PM 70.0°F21.1°C 62.6°F17.0°C 77% 7.3 mph SW11.7 kmh SW 20.0 mph32.2 kmh 29.47 in998.0 mb 0.00 in0.0 mm 0.00 in0.0 mm 1.28 in32.5 mm
01:01 PM 70.1°F21.2°C 62.6°F17.0°C 77% 7.6 mph WSW12.2 kmh WSW 20.0 mph32.2 kmh 29.47 in998.0 mb 0.00 in0.0 mm 0.00 in0.0 mm 1.28 in32.5 mm
01:06 PM 69.8°F21.0°C 62.0°F16.7°C 76% 8.4 mph WSW13.5 kmh WSW 20.0 mph32.2 kmh 29.47 in998.0 mb 0.00 in0.0 mm 0.00 in0.0 mm 1.28 in32.5 mm
01:11 PM 69.8°F21.0°C 60.9°F16.1°C 73% 9.5 mph SW15.3 kmh SW 24.0 mph38.6 kmh 29.47 in998.0 mb 0.00 in0.0 mm 0.00 in0.0 mm 1.28 in32.5 mm
01:16 PM 69.7°F20.9°C 60.7°F15.9°C 73% 7.5 mph SW12.1 kmh SW 24.0 mph38.6 kmh 29.47 in998.0 mb 0.00 in0.0 mm 0.00 in0.0 mm 1.28 in32.5 mm
01:21 PM 70.3°F21.3°C 62.1°F16.7°C 75% 4.3 mph SW6.9 kmh SW 24.0 mph38.6 kmh 29.47 in998.0 mb 0.00 in0.0 mm 0.00 in0.0 mm 1.28 in32.5 mm
01:26 PM 70.5°F21.4°C 61.6°F16.4°C 73% 4.0 mph WSW6.4 kmh WSW 24.0 mph38.6 kmh 29.47 in998.0 mb 0.00 in0.0 mm 0.00 in0.0 mm 1.28 in32.5 mm
01:31 PM 70.3°F21.3°C 61.4°F16.3°C 73% 5.4 mph WSW8.7 kmh WSW 17.0 mph27.4 kmh 29.47 in998.0 mb 0.00 in0.0 mm 0.00 in0.0 mm 1.28 in32.5 mm
01:36 PM 70.3°F21.3°C 61.0°F16.1°C 72% 5.7 mph SW9.2 kmh SW 17.0 mph27.4 kmh 29.46 in997.6 mb 0.00 in0.0 mm 0.00 in0.0 mm 1.28 in32.5 mm
01:41 PM 70.2°F21.2°C 60.9°F16.1°C 72% 6.3 mph SW10.1 kmh SW 17.0 mph27.4 kmh 29.46 in997.6 mb 0.00 in0.0 mm 0.00 in0.0 mm 1.28 in32.5 mm
01:46 PM 70.4°F21.3°C 61.9°F16.6°C 74% 3.2 mph SW5.1 kmh SW 16.0 mph25.7 kmh 29.46 in997.6 mb 0.00 in0.0 mm 0.00 in0.0 mm 1.28 in32.5 mm
01:51 PM 70.9°F21.6°C 61.2°F16.2°C 71% 6.6 mph SW10.6 kmh SW 14.0 mph22.5 kmh 29.45 in997.3 mb 0.00 in0.0 mm 0.00 in0.0 mm 1.28 in32.5 mm
01:56 PM 71.2°F21.8°C 61.9°F16.6°C 72% 2.4 mph WSW3.9 kmh WSW 12.0 mph19.3 kmh 29.45 in997.3 mb 0.00 in0.0 mm 0.00 in0.0 mm 1.28 in32.5 mm
02:01 PM 70.8°F21.6°C 61.1°F16.2°C 71% 4.2 mph SW6.8 kmh SW 12.0 mph19.3 kmh 29.45 in997.3 mb 0.00 in0.0 mm 0.00 in0.0 mm 1.28 in32.5 mm
02:06 PM 71.0°F21.7°C 61.7°F16.5°C 72% 5.3 mph SSW8.5 kmh SSW 15.0 mph24.1 kmh 29.45 in997.3 mb 0.00 in0.0 mm 0.00 in0.0 mm 1.28 in32.5 mm
02:11 PM 70.6°F21.4°C 60.7°F15.9°C 71% 6.3 mph SW10.1 kmh SW 17.0 mph27.4 kmh 29.46 in997.6 mb 0.00 in0.0 mm 0.00 in0.0 mm 1.28 in32.5 mm
02:16 PM 69.1°F20.6°C 61.0°F16.1°C 75% 5.3 mph WSW8.5 kmh WSW 17.0 mph27.4 kmh 29.47 in998.0 mb 0.02 in0.5 mm 0.24 in6.1 mm 1.30 in33.0 mm
02:21 PM 66.6°F19.2°C 61.3°F16.3°C 83% 5.5 mph WSW8.9 kmh WSW 18.0 mph29.0 kmh 29.48 in998.3 mb 0.09 in2.3 mm 0.84 in21.3 mm 1.37 in34.8 mm
02:26 PM 64.9°F18.3°C 61.3°F16.3°C 88% 4.9 mph WSW7.9 kmh WSW 18.0 mph29.0 kmh 29.48 in998.3 mb 0.10 in2.5 mm 0.12 in3.0 mm 1.38 in35.1 mm
02:31 PM 64.4°F18.0°C 61.4°F16.3°C 90% 4.3 mph WSW6.9 kmh WSW 19.0 mph30.6 kmh 29.49 in998.6 mb 0.10 in2.5 mm 0.00 in0.0 mm 1.38 in35.1 mm
02:36 PM 64.1°F17.8°C 61.1°F16.2°C 90% 8.1 mph WSW13.0 kmh WSW 19.0 mph30.6 kmh 29.48 in998.3 mb 0.10 in2.5 mm 0.00 in0.0 mm 1.38 in35.1 mm
02:41 PM 63.7°F17.6°C 60.4°F15.8°C 89% 9.4 mph WSW15.1 kmh WSW 19.0 mph30.6 kmh 29.49 in998.6 mb 0.10 in2.5 mm 0.00 in0.0 mm 1.38 in35.1 mm
02:45 PM 63.5°F17.5°C 59.9°F15.5°C 88% 7.8 mph WSW12.6 kmh WSW 24.0 mph38.6 kmh 29.49 in998.6 mb 0.10 in2.5 mm 0.00 in0.0 mm 1.38 in35.1 mm
02:50 PM 63.8°F17.7°C 60.2°F15.7°C 88% 5.0 mph WSW8.0 kmh WSW 24.0 mph38.6 kmh 29.48 in998.3 mb 0.10 in2.5 mm 0.00 in0.0 mm 1.38 in35.1 mm
02:55 PM 64.2°F17.9°C 59.9°F15.5°C 86% 6.2 mph WSW10.0 kmh WSW 24.0 mph38.6 kmh 29.48 in998.3 mb 0.10 in2.5 mm 0.00 in0.0 mm 1.38 in35.1 mm
03:00 PM 64.3°F17.9°C 59.1°F15.1°C 83% 7.3 mph SW11.7 kmh SW 24.0 mph38.6 kmh 29.48 in998.3 mb 0.10 in2.5 mm 0.00 in0.0 mm 1.38 in35.1 mm
03:05 PM 64.4°F18.0°C 59.1°F15.1°C 83% 7.6 mph WSW12.2 kmh WSW 21.0 mph33.8 kmh 29.48 in998.3 mb 0.10 in2.5 mm 0.00 in0.0 mm 1.38 in35.1 mm
03:10 PM 64.4°F18.0°C 58.8°F14.9°C 82% 9.3 mph WSW15.0 kmh WSW 21.0 mph33.8 kmh 29.48 in998.3 mb 0.10 in2.5 mm 0.00 in0.0 mm 1.38 in35.1 mm
03:15 PM 64.3°F17.9°C 59.1°F15.1°C 83% 5.7 mph WSW9.2 kmh WSW 21.0 mph33.8 kmh 29.48 in998.3 mb 0.09 in2.3 mm 0.00 in0.0 mm 1.38 in35.1 mm
03:20 PM 64.2°F17.9°C 59.3°F15.2°C 84% 3.9 mph SW6.3 kmh SW 20.0 mph32.2 kmh 29.49 in998.6 mb 0.02 in0.5 mm 0.00 in0.0 mm 1.38 in35.1 mm
03:25 PM 64.1°F17.8°C 58.9°F14.9°C 83% 6.9 mph WSW11.1 kmh WSW 20.0 mph32.2 kmh 29.48 in998.3 mb 0.00 in0.0 mm 0.00 in0.0 mm 1.38 in35.1 mm
03:30 PM 64.3°F17.9°C 57.0°F13.9°C 77% 11.7 mph WSW18.8 kmh WSW 22.0 mph35.4 kmh 29.49 in998.6 mb 0.00 in0.0 mm 0.00 in0.0 mm 1.38 in35.1 mm
03:35 PM 64.1°F17.8°C 56.8°F13.8°C 77% 4.9 mph SW7.9 kmh SW 24.0 mph38.6 kmh 29.49 in998.6 mb 0.00 in0.0 mm 0.00 in0.0 mm 1.38 in35.1 mm
03:40 PM 64.3°F17.9°C 56.7°F13.7°C 76% 8.1 mph WSW13.0 kmh WSW 24.0 mph38.6 kmh 29.49 in998.6 mb 0.00 in0.0 mm 0.00 in0.0 mm 1.38 in35.1 mm
03:45 PM 64.0°F17.8°C 56.0°F13.3°C 75% 7.2 mph WSW11.6 kmh WSW 24.0 mph38.6 kmh 29.49 in998.6 mb 0.00 in0.0 mm 0.00 in0.0 mm 1.38 in35.1 mm
03:50 PM 63.5°F17.5°C 55.9°F13.3°C 76% 7.8 mph WSW12.6 kmh WSW 24.0 mph38.6 kmh 29.50 in999.0 mb 0.00 in0.0 mm 0.00 in0.0 mm 1.38 in35.1 mm
03:55 PM 63.0°F17.2°C 55.8°F13.2°C 77% 4.9 mph SW7.9 kmh SW 24.0 mph38.6 kmh 29.50 in999.0 mb 0.00 in0.0 mm 0.00 in0.0 mm 1.38 in35.1 mm
04:00 PM 62.7°F17.1°C 55.5°F13.1°C 77% 8.8 mph SW14.2 kmh SW 25.0 mph40.2 kmh 29.50 in999.0 mb 0.00 in0.0 mm 0.00 in0.0 mm 1.38 in35.1 mm
04:05 PM 62.2°F16.8°C 55.3°F12.9°C 78% 6.6 mph SW10.6 kmh SW 25.0 mph40.2 kmh 29.51 in999.3 mb 0.00 in0.0 mm 0.00 in0.0 mm 1.38 in35.1 mm
04:10 PM 61.8°F16.6°C 54.9°F12.7°C 78% 9.7 mph WSW15.6 kmh WSW 25.0 mph40.2 kmh 29.51 in999.3 mb 0.00 in0.0 mm 0.00 in0.0 mm 1.38 in35.1 mm
04:15 PM 61.8°F16.6°C 54.6°F12.6°C 77% 6.0 mph WSW9.7 kmh WSW 23.0 mph37.0 kmh 29.51 in999.3 mb 0.00 in0.0 mm 0.00 in0.0 mm 1.38 in35.1 mm
04:20 PM 61.6°F16.4°C 54.4°F12.4°C 77% 4.9 mph WSW7.9 kmh WSW 23.0 mph37.0 kmh 29.51 in999.3 mb 0.00 in0.0 mm 0.00 in0.0 mm 1.38 in35.1 mm
04:25 PM 61.4°F16.3°C 54.9°F12.7°C 79% 2.4 mph WSW3.9 kmh WSW 23.0 mph37.0 kmh 29.51 in999.3 mb 0.00 in0.0 mm 0.00 in0.0 mm 1.38 in35.1 mm
04:30 PM 61.8°F16.6°C 54.3°F12.4°C 76% 7.5 mph WSW12.1 kmh WSW 23.0 mph37.0 kmh 29.51 in999.3 mb 0.00 in0.0 mm 0.00 in0.0 mm 1.38 in35.1 mm
04:35 PM 62.1°F16.7°C 54.8°F12.7°C 77% 2.6 mph WSW4.2 kmh WSW 21.0 mph33.8 kmh 29.51 in999.3 mb 0.00 in0.0 mm 0.00 in0.0 mm 1.38 in35.1 mm
04:40 PM 62.3°F16.8°C 53.7°F12.1°C 73% 8.2 mph WSW13.2 kmh WSW 23.0 mph37.0 kmh 29.52 in999.7 mb 0.00 in0.0 mm 0.00 in0.0 mm 1.38 in35.1 mm
04:45 PM 61.4°F16.3°C 53.2°F11.8°C 74% 6.3 mph SW10.1 kmh SW 25.0 mph40.2 kmh 29.52 in999.7 mb 0.00 in0.0 mm 0.00 in0.0 mm 1.38 in35.1 mm
04:50 PM 61.3°F16.3°C 53.1°F11.7°C 74% 7.1 mph SW11.4 kmh SW 25.0 mph40.2 kmh 29.53 in1000.0 mb 0.00 in0.0 mm 0.00 in0.0 mm 1.38 in35.1 mm
04:55 PM 61.4°F16.3°C 53.2°F11.8°C 74% 4.6 mph WSW7.4 kmh WSW 25.0 mph40.2 kmh 29.53 in1000.0 mb 0.00 in0.0 mm 0.00 in0.0 mm 1.38 in35.1 mm
05:00 PM 61.3°F16.3°C 53.1°F11.7°C 74% 5.0 mph SW8.0 kmh SW 25.0 mph40.2 kmh 29.53 in1000.0 mb 0.00 in0.0 mm 0.00 in0.0 mm 1.38 in35.1 mm
05:05 PM 61.0°F16.1°C 52.8°F11.6°C 74% 5.7 mph SW9.2 kmh SW 25.0 mph40.2 kmh 29.54 in1000.3 mb 0.00 in0.0 mm 0.00 in0.0 mm 1.38 in35.1 mm
05:10 PM 60.4°F15.8°C 52.5°F11.4°C 75% 7.2 mph SW11.6 kmh SW 19.0 mph30.6 kmh 29.54 in1000.3 mb 0.00 in0.0 mm 0.00 in0.0 mm 1.38 in35.1 mm
05:15 PM 60.1°F15.6°C 52.3°F11.3°C 75% 7.7 mph SW12.4 kmh SW 19.0 mph30.6 kmh 29.54 in1000.3 mb 0.00 in0.0 mm 0.00 in0.0 mm 1.38 in35.1 mm
05:20 PM 60.1°F15.6°C 52.3°F11.3°C 75% 6.7 mph SW10.8 kmh SW 19.0 mph30.6 kmh 29.54 in1000.3 mb 0.00 in0.0 mm 0.00 in0.0 mm 1.38 in35.1 mm
05:26 PM 60.2°F15.7°C 52.0°F11.1°C 74% 3.9 mph SW6.3 kmh SW 18.0 mph29.0 kmh 29.55 in1000.7 mb 0.00 in0.0 mm 0.00 in0.0 mm 1.38 in35.1 mm
05:30 PM 59.7°F15.4°C 51.1°F10.6°C 73% 8.2 mph SW13.2 kmh SW 18.0 mph29.0 kmh 29.55 in1000.7 mb 0.00 in0.0 mm 0.00 in0.0 mm 1.38 in35.1 mm
05:35 PM 59.5°F15.3°C 51.3°F10.7°C 74% 5.5 mph WSW8.9 kmh WSW 17.0 mph27.4 kmh 29.55 in1000.7 mb 0.00 in0.0 mm 0.00 in0.0 mm 1.38 in35.1 mm
05:41 PM 59.3°F15.2°C 51.5°F10.8°C 75% 4.3 mph WSW6.9 kmh WSW 15.0 mph24.1 kmh 29.56 in1001.0 mb 0.00 in0.0 mm 0.00 in0.0 mm 1.38 in35.1 mm
05:46 PM 59.0°F15.0°C 50.8°F10.4°C 74% 3.8 mph SW6.1 kmh SW 15.0 mph24.1 kmh 29.55 in1000.7 mb 0.00 in0.0 mm 0.00 in0.0 mm 1.38 in35.1 mm
05:51 PM 58.8°F14.9°C 51.0°F10.6°C 75% 4.9 mph SW7.9 kmh SW 17.0 mph27.4 kmh 29.56 in1001.0 mb 0.00 in0.0 mm 0.00 in0.0 mm 1.38 in35.1 mm
05:56 PM 58.7°F14.8°C 50.5°F10.3°C 74% 5.3 mph SW8.5 kmh SW 17.0 mph27.4 kmh 29.56 in1001.0 mb 0.00 in0.0 mm 0.00 in0.0 mm 1.38 in35.1 mm
06:01 PM 58.8°F14.9°C 51.0°F10.6°C 75% 4.9 mph WSW7.9 kmh WSW 17.0 mph27.4 kmh 29.56 in1001.0 mb 0.00 in0.0 mm 0.00 in0.0 mm 1.38 in35.1 mm
06:06 PM 58.6°F14.8°C 50.8°F10.4°C 75% 5.0 mph SW8.0 kmh SW 19.0 mph30.6 kmh 29.56 in1001.0 mb 0.00 in0.0 mm 0.00 in0.0 mm 1.38 in35.1 mm
06:11 PM 58.2°F14.6°C 50.1°F10.1°C 74% 8.6 mph SW13.8 kmh SW 20.0 mph32.2 kmh 29.57 in1001.4 mb 0.00 in0.0 mm 0.00 in0.0 mm 1.38 in35.1 mm
06:16 PM 58.0°F14.4°C 49.9°F9.9°C 74% 7.8 mph SW12.6 kmh SW 24.0 mph38.6 kmh 29.57 in1001.4 mb 0.00 in0.0 mm 0.00 in0.0 mm 1.38 in35.1 mm
06:21 PM 58.0°F14.4°C 49.9°F9.9°C 74% 7.0 mph WSW11.3 kmh WSW 24.0 mph38.6 kmh 29.57 in1001.4 mb 0.00 in0.0 mm 0.00 in0.0 mm 1.38 in35.1 mm
06:26 PM 57.8°F14.3°C 49.7°F9.8°C 74% 7.6 mph WSW12.2 kmh WSW 24.0 mph38.6 kmh 29.57 in1001.4 mb 0.00 in0.0 mm 0.00 in0.0 mm 1.38 in35.1 mm
06:31 PM 57.7°F14.3°C 49.6°F9.8°C 74% 5.8 mph WSW9.3 kmh WSW 24.0 mph38.6 kmh 29.58 in1001.7 mb 0.00 in0.0 mm 0.00 in0.0 mm 1.38 in35.1 mm
06:36 PM 57.5°F14.2°C 49.7°F9.8°C 75% 6.8 mph SW10.9 kmh SW 22.0 mph35.4 kmh 29.58 in1001.7 mb 0.00 in0.0 mm 0.00 in0.0 mm 1.38 in35.1 mm
06:41 PM 57.1°F13.9°C 49.3°F9.6°C 75% 9.6 mph SW15.4 kmh SW 22.0 mph35.4 kmh 29.58 in1001.7 mb 0.00 in0.0 mm 0.00 in0.0 mm 1.38 in35.1 mm
06:46 PM 56.7°F13.7°C 49.6°F9.8°C 77% 5.7 mph WSW9.2 kmh WSW 20.0 mph32.2 kmh 29.58 in1001.7 mb 0.00 in0.0 mm 0.00 in0.0 mm 1.38 in35.1 mm
06:51 PM 56.3°F13.5°C 49.6°F9.8°C 78% 6.4 mph WSW10.3 kmh WSW 20.0 mph32.2 kmh 29.58 in1001.7 mb 0.00 in0.0 mm 0.00 in0.0 mm 1.38 in35.1 mm
06:56 PM 56.2°F13.4°C 49.5°F9.7°C 78% 5.1 mph WSW8.2 kmh WSW 21.0 mph33.8 kmh 29.59 in1002.0 mb 0.00 in0.0 mm 0.00 in0.0 mm 1.38 in35.1 mm
07:01 PM 56.0°F13.3°C 49.2°F9.6°C 78% 2.5 mph WSW4.0 kmh WSW 21.0 mph33.8 kmh 29.59 in1002.0 mb 0.00 in0.0 mm 0.00 in0.0 mm 1.38 in35.1 mm
07:06 PM 55.8°F13.2°C 49.4°F9.7°C 79% 3.3 mph WSW5.3 kmh WSW 21.0 mph33.8 kmh 29.60 in1002.4 mb 0.00 in0.0 mm 0.00 in0.0 mm 1.38 in35.1 mm
07:11 PM 55.6°F13.1°C 48.5°F9.2°C 77% 5.5 mph WSW8.9 kmh WSW 18.0 mph29.0 kmh 29.60 in1002.4 mb 0.00 in0.0 mm 0.00 in0.0 mm 1.38 in35.1 mm
07:16 PM 55.4°F13.0°C 48.0°F8.9°C 76% 9.4 mph WSW15.1 kmh WSW 18.0 mph29.0 kmh 29.60 in1002.4 mb 0.00 in0.0 mm 0.00 in0.0 mm 1.38 in35.1 mm
07:21 PM 55.2°F12.9°C 48.2°F9.0°C 77% 5.2 mph WSW8.4 kmh WSW 18.0 mph29.0 kmh 29.61 in1002.7 mb 0.00 in0.0 mm 0.00 in0.0 mm 1.38 in35.1 mm
07:26 PM 55.0°F12.8°C 48.7°F9.3°C 79% 5.5 mph W8.9 kmh W 18.0 mph29.0 kmh 29.61 in1002.7 mb 0.00 in0.0 mm 0.00 in0.0 mm 1.38 in35.1 mm
07:31 PM 54.6°F12.6°C 48.9°F9.4°C 81% 5.2 mph WSW8.4 kmh WSW 17.0 mph27.4 kmh 29.62 in1003.0 mb 0.00 in0.0 mm 0.00 in0.0 mm 1.38 in35.1 mm
07:36 PM 54.2°F12.3°C 48.8°F9.3°C 82% 6.5 mph WSW10.5 kmh WSW 14.0 mph22.5 kmh 29.62 in1003.0 mb 0.00 in0.0 mm 0.00 in0.0 mm 1.38 in35.1 mm
07:41 PM 54.0°F12.2°C 49.0°F9.4°C 83% 4.8 mph SW7.7 kmh SW 14.0 mph22.5 kmh 29.62 in1003.0 mb 0.00 in0.0 mm 0.00 in0.0 mm 1.38 in35.1 mm
07:45 PM 53.9°F12.2°C 48.6°F9.2°C 82% 5.3 mph SW8.5 kmh SW 14.0 mph22.5 kmh 29.63 in1003.4 mb 0.00 in0.0 mm 0.00 in0.0 mm 1.38 in35.1 mm
07:50 PM 53.9°F12.2°C 48.9°F9.4°C 83% 4.3 mph WSW6.9 kmh WSW 13.0 mph20.9 kmh 29.63 in1003.4 mb 0.00 in0.0 mm 0.00 in0.0 mm 1.38 in35.1 mm
07:55 PM 53.9°F12.2°C 48.6°F9.2°C 82% 4.2 mph WSW6.8 kmh WSW 14.0 mph22.5 kmh 29.63 in1003.4 mb 0.00 in0.0 mm 0.00 in0.0 mm 1.38 in35.1 mm
08:00 PM 53.8°F12.1°C 48.5°F9.2°C 82% 5.6 mph WSW9.0 kmh WSW 14.0 mph22.5 kmh 29.64 in1003.7 mb 0.00 in0.0 mm 0.00 in0.0 mm 1.38 in35.1 mm
08:05 PM 53.8°F12.1°C 48.5°F9.2°C 82% 4.6 mph WSW7.4 kmh WSW 20.0 mph32.2 kmh 29.64 in1003.7 mb 0.00 in0.0 mm 0.00 in0.0 mm 1.38 in35.1 mm
08:10 PM 53.7°F12.1°C 48.4°F9.1°C 82% 8.2 mph W13.2 kmh W 20.0 mph32.2 kmh 29.64 in1003.7 mb 0.00 in0.0 mm 0.00 in0.0 mm 1.38 in35.1 mm
08:15 PM 53.5°F11.9°C 48.5°F9.2°C 83% 4.2 mph SW6.8 kmh SW 20.0 mph32.2 kmh 29.64 in1003.7 mb 0.00 in0.0 mm 0.00 in0.0 mm 1.38 in35.1 mm
08:20 PM 53.2°F11.8°C 48.5°F9.2°C 84% 4.2 mph SW6.8 kmh SW 20.0 mph32.2 kmh 29.64 in1003.7 mb 0.00 in0.0 mm 0.00 in0.0 mm 1.38 in35.1 mm
08:25 PM 53.0°F11.7°C 48.3°F9.1°C 84% 3.8 mph WSW6.1 kmh WSW 15.0 mph24.1 kmh 29.64 in1003.7 mb 0.00 in0.0 mm 0.00 in0.0 mm 1.38 in35.1 mm
08:30 PM 52.8°F11.6°C 47.8°F8.8°C 83% 8.6 mph WSW13.8 kmh WSW 15.0 mph24.1 kmh 29.65 in1004.1 mb 0.00 in0.0 mm 0.00 in0.0 mm 1.38 in35.1 mm
08:35 PM 52.6°F11.4°C 47.6°F8.7°C 83% 7.5 mph WSW12.1 kmh WSW 16.0 mph25.7 kmh 29.65 in1004.1 mb 0.00 in0.0 mm 0.00 in0.0 mm 1.38 in35.1 mm
08:40 PM 52.5°F11.4°C 47.5°F8.6°C 83% 6.0 mph WSW9.7 kmh WSW 16.0 mph25.7 kmh 29.65 in1004.1 mb 0.00 in0.0 mm 0.00 in0.0 mm 1.38 in35.1 mm
08:45 PM 52.3°F11.3°C 47.3°F8.5°C 83% 5.7 mph WSW9.2 kmh WSW 16.0 mph25.7 kmh 29.65 in1004.1 mb 0.00 in0.0 mm 0.00 in0.0 mm 1.38 in35.1 mm
08:50 PM 52.2°F11.2°C 47.5°F8.6°C 84% 3.5 mph SW5.6 kmh SW 16.0 mph25.7 kmh 29.66 in1004.4 mb 0.00 in0.0 mm 0.00 in0.0 mm 1.38 in35.1 mm
08:55 PM 52.2°F11.2°C 47.5°F8.6°C 84% 3.7 mph WSW6.0 kmh WSW 16.0 mph25.7 kmh 29.66 in1004.4 mb 0.00 in0.0 mm 0.00 in0.0 mm 1.38 in35.1 mm
09:00 PM 52.1°F11.2°C 47.1°F8.4°C 83% 4.3 mph WSW6.9 kmh WSW 18.0 mph29.0 kmh 29.66 in1004.4 mb 0.00 in0.0 mm 0.00 in0.0 mm 1.38 in35.1 mm
09:05 PM 51.9°F11.1°C 46.6°F8.1°C 82% 3.8 mph WSW6.1 kmh WSW 18.0 mph29.0 kmh 29.66 in1004.4 mb 0.00 in0.0 mm 0.00 in0.0 mm 1.38 in35.1 mm
09:10 PM 51.8°F11.0°C 46.8°F8.2°C 83% 4.6 mph WSW7.4 kmh WSW 18.0 mph29.0 kmh 29.67 in1004.7 mb 0.00 in0.0 mm 0.00 in0.0 mm 1.38 in35.1 mm
09:15 PM 51.8°F11.0°C 46.8°F8.2°C 83% 5.8 mph WSW9.3 kmh WSW 18.0 mph29.0 kmh 29.67 in1004.7 mb 0.00 in0.0 mm 0.00 in0.0 mm 1.38 in35.1 mm
09:20 PM 51.7°F10.9°C 46.7°F8.2°C 83% 3.8 mph WSW6.1 kmh WSW 15.0 mph24.1 kmh 29.67 in1004.7 mb 0.00 in0.0 mm 0.00 in0.0 mm 1.38 in35.1 mm
09:25 PM 51.7°F10.9°C 46.7°F8.2°C 83% 3.5 mph WSW5.6 kmh WSW 15.0 mph24.1 kmh 29.67 in1004.7 mb 0.00 in0.0 mm 0.00 in0.0 mm 1.38 in35.1 mm
09:30 PM 51.6°F10.9°C 46.6°F8.1°C 83% 5.0 mph WSW8.0 kmh WSW 15.0 mph24.1 kmh 29.67 in1004.7 mb 0.00 in0.0 mm 0.00 in0.0 mm 1.38 in35.1 mm
09:35 PM 51.5°F10.8°C 45.9°F7.7°C 81% 7.5 mph WSW12.1 kmh WSW 16.0 mph25.7 kmh 29.67 in1004.7 mb 0.00 in0.0 mm 0.00 in0.0 mm 1.38 in35.1 mm
09:40 PM 51.4°F10.8°C 45.8°F7.7°C 81% 4.5 mph SW7.2 kmh SW 16.0 mph25.7 kmh 29.67 in1004.7 mb 0.00 in0.0 mm 0.00 in0.0 mm 1.38 in35.1 mm
09:45 PM 51.2°F10.7°C 45.9°F7.7°C 82% 3.2 mph WSW5.1 kmh WSW 16.0 mph25.7 kmh 29.68 in1005.1 mb 0.00 in0.0 mm 0.00 in0.0 mm 1.38 in35.1 mm
09:50 PM 50.9°F10.5°C 45.6°F7.6°C 82% 4.6 mph WSW7.4 kmh WSW 16.0 mph25.7 kmh 29.68 in1005.1 mb 0.00 in0.0 mm 0.00 in0.0 mm 1.38 in35.1 mm
09:55 PM 50.7°F10.4°C 45.4°F7.4°C 82% 5.1 mph WSW8.2 kmh WSW 14.0 mph22.5 kmh 29.68 in1005.1 mb 0.00 in0.0 mm 0.00 in0.0 mm 1.38 in35.1 mm
10:00 PM 50.5°F10.3°C 44.9°F7.2°C 81% 6.3 mph WSW10.1 kmh WSW 14.0 mph22.5 kmh 29.68 in1005.1 mb 0.00 in0.0 mm 0.00 in0.0 mm 1.38 in35.1 mm
10:05 PM 50.3°F10.2°C 45.0°F7.2°C 82% 4.0 mph WSW6.4 kmh WSW 14.0 mph22.5 kmh 29.69 in1005.4 mb 0.00 in0.0 mm 0.00 in0.0 mm 1.38 in35.1 mm
10:10 PM 50.1°F10.1°C 44.8°F7.1°C 82% 4.1 mph WSW6.6 kmh WSW 14.0 mph22.5 kmh 29.69 in1005.4 mb 0.00 in0.0 mm 0.00 in0.0 mm 1.38 in35.1 mm
10:15 PM 50.0°F10.0°C 45.0°F7.2°C 83% 3.0 mph WSW4.8 kmh WSW 14.0 mph22.5 kmh 29.69 in1005.4 mb 0.00 in0.0 mm 0.00 in0.0 mm 1.38 in35.1 mm
10:20 PM 50.0°F10.0°C 45.0°F7.2°C 83% 3.7 mph WSW6.0 kmh WSW 11.0 mph17.7 kmh 29.70 in1005.8 mb 0.00 in0.0 mm 0.00 in0.0 mm 1.38 in35.1 mm
10:25 PM 49.9°F9.9°C 45.0°F7.2°C 83% 6.0 mph WSW9.7 kmh WSW 13.0 mph20.9 kmh 29.69 in1005.4 mb 0.00 in0.0 mm 0.00 in0.0 mm 1.38 in35.1 mm
10:30 PM 49.7°F9.8°C 44.4°F6.9°C 82% 5.2 mph SW8.4 kmh SW 16.0 mph25.7 kmh 29.70 in1005.8 mb 0.00 in0.0 mm 0.00 in0.0 mm 1.38 in35.1 mm
10:35 PM 49.6°F9.8°C 44.7°F7.1°C 83% 6.1 mph WSW9.8 kmh WSW 17.0 mph27.4 kmh 29.70 in1005.8 mb 0.00 in0.0 mm 0.00 in0.0 mm 1.38 in35.1 mm
10:40 PM 49.6°F9.8°C 44.7°F7.1°C 83% 2.1 mph WSW3.4 kmh WSW 17.0 mph27.4 kmh 29.70 in1005.8 mb 0.00 in0.0 mm 0.00 in0.0 mm 1.38 in35.1 mm
10:45 PM 49.5°F9.7°C 44.6°F7.0°C 83% 4.2 mph SW6.8 kmh SW 17.0 mph27.4 kmh 29.70 in1005.8 mb 0.00 in0.0 mm 0.00 in0.0 mm 1.38 in35.1 mm
10:50 PM 49.4°F9.7°C 44.5°F6.9°C 83% 5.4 mph WSW8.7 kmh WSW 17.0 mph27.4 kmh 29.70 in1005.8 mb 0.00 in0.0 mm 0.00 in0.0 mm 1.38 in35.1 mm
10:55 PM 49.3°F9.6°C 44.4°F6.9°C 83% 4.7 mph SW7.6 kmh SW 13.0 mph20.9 kmh 29.70 in1005.8 mb 0.00 in0.0 mm 0.00 in0.0 mm 1.38 in35.1 mm
11:00 PM 49.3°F9.6°C 44.1°F6.7°C 82% 4.7 mph SW7.6 kmh SW 13.0 mph20.9 kmh 29.70 in1005.8 mb 0.00 in0.0 mm 0.00 in0.0 mm 1.38 in35.1 mm
11:05 PM 49.2°F9.6°C 44.0°F6.7°C 82% 5.4 mph SW8.7 kmh SW 12.0 mph19.3 kmh 29.70 in1005.8 mb 0.00 in0.0 mm 0.00 in0.0 mm 1.24 in31.5 mm
11:10 PM 49.1°F9.5°C 43.5°F6.4°C 81% 5.5 mph SW8.9 kmh SW 13.0 mph20.9 kmh 29.70 in1005.8 mb 0.00 in0.0 mm 0.00 in0.0 mm 1.24 in31.5 mm
11:15 PM 48.9°F9.4°C 43.7°F6.5°C 82% 7.0 mph WSW11.3 kmh WSW 17.0 mph27.4 kmh 29.71 in1006.1 mb 0.00 in0.0 mm 0.00 in0.0 mm 1.24 in31.5 mm
11:20 PM 48.7°F9.3°C 43.5°F6.4°C 82% 3.6 mph SW5.8 kmh SW 17.0 mph27.4 kmh 29.71 in1006.1 mb 0.00 in0.0 mm 0.00 in0.0 mm 1.24 in31.5 mm
11:25 PM 48.5°F9.2°C 43.3°F6.3°C 82% 6.7 mph WSW10.8 kmh WSW 17.0 mph27.4 kmh 29.71 in1006.1 mb 0.00 in0.0 mm 0.00 in0.0 mm 1.24 in31.5 mm
11:30 PM 48.3°F9.1°C 43.4°F6.3°C 83% 5.3 mph WSW8.5 kmh WSW 17.0 mph27.4 kmh 29.71 in1006.1 mb 0.00 in0.0 mm 0.00 in0.0 mm 1.24 in31.5 mm
11:35 PM 48.1°F8.9°C 42.9°F6.1°C 82% 4.2 mph SW6.8 kmh SW 13.0 mph20.9 kmh 29.71 in1006.1 mb 0.00 in0.0 mm 0.00 in0.0 mm 1.24 in31.5 mm
11:40 PM 47.9°F8.8°C 43.0°F6.1°C 83% 4.5 mph SW7.2 kmh SW 17.0 mph27.4 kmh 29.72 in1006.4 mb 0.00 in0.0 mm 0.00 in0.0 mm 1.24 in31.5 mm
11:45 PM 47.7°F8.7°C 42.8°F6.0°C 83% 4.2 mph WSW6.8 kmh WSW 17.0 mph27.4 kmh 29.72 in1006.4 mb 0.00 in0.0 mm 0.00 in0.0 mm 1.24 in31.5 mm
11:50 PM 47.6°F8.7°C 42.7°F5.9°C 83% 3.1 mph SW5.0 kmh SW 17.0 mph27.4 kmh 29.72 in1006.4 mb 0.00 in0.0 mm 0.00 in0.0 mm 1.24 in31.5 mm
11:55 PM 47.5°F8.6°C 42.6°F5.9°C 83% 2.9 mph WSW4.7 kmh WSW 15.0 mph24.1 kmh 29.72 in1006.4 mb 0.00 in0.0 mm 0.00 in0.0 mm 1.24 in31.5 mm